sensor_id;sensor_type;location;lat;lon;timestamp;temperature;humidity
4183;DHT22;2105;52.300;9.182;2022-08-03T00:01:28;21.10;99.90
4183;DHT22;2105;52.300;9.182;2022-08-03T00:03:55;21.20;99.90
4183;DHT22;2105;52.300;9.182;2022-08-03T00:06:21;21.20;99.90
4183;DHT22;2105;52.300;9.182;2022-08-03T00:08:48;21.20;99.90
4183;DHT22;2105;52.300;9.182;2022-08-03T00:11:15;21.20;99.90
4183;DHT22;2105;52.300;9.182;2022-08-03T00:13:43;21.20;99.90
4183;DHT22;2105;52.300;9.182;2022-08-03T00:16:10;21.20;99.90
4183;DHT22;2105;52.300;9.182;2022-08-03T00:18:37;21.20;99.90
4183;DHT22;2105;52.300;9.182;2022-08-03T00:21:04;21.30;99.90
4183;DHT22;2105;52.300;9.182;2022-08-03T00:23:31;21.40;1.00
4183;DHT22;2105;52.300;9.182;2022-08-03T00:25:58;21.50;1.00
4183;DHT22;2105;52.300;9.182;2022-08-03T00:28:24;21.50;1.00
4183;DHT22;2105;52.300;9.182;2022-08-03T00:30:52;21.60;1.00
4183;DHT22;2105;52.300;9.182;2022-08-03T00:33:20;21.80;1.00
4183;DHT22;2105;52.300;9.182;2022-08-03T00:35:47;21.80;1.00
4183;DHT22;2105;52.300;9.182;2022-08-03T00:38:14;21.90;1.00
4183;DHT22;2105;52.300;9.182;2022-08-03T00:40:41;21.80;1.00
4183;DHT22;2105;52.300;9.182;2022-08-03T00:43:08;21.80;1.00
4183;DHT22;2105;52.300;9.182;2022-08-03T00:45:36;21.80;1.00
4183;DHT22;2105;52.300;9.182;2022-08-03T00:48:08;21.70;1.00
4183;DHT22;2105;52.300;9.182;2022-08-03T00:50:38;21.70;1.00
4183;DHT22;2105;52.300;9.182;2022-08-03T00:53:06;21.50;22.00
4183;DHT22;2105;52.300;9.182;2022-08-03T00:55:35;21.40;99.90
4183;DHT22;2105;52.300;9.182;2022-08-03T00:58:02;21.20;99.90
4183;DHT22;2105;52.300;9.182;2022-08-03T01:00:33;21.20;99.90
4183;DHT22;2105;52.300;9.182;2022-08-03T01:03:04;21.20;99.90
4183;DHT22;2105;52.300;9.182;2022-08-03T01:05:37;21.10;99.90
4183;DHT22;2105;52.300;9.182;2022-08-03T01:08:12;21.00;99.90
4183;DHT22;2105;52.300;9.182;2022-08-03T01:10:48;21.00;99.90
4183;DHT22;2105;52.300;9.182;2022-08-03T01:13:21;20.80;1.00
4183;DHT22;2105;52.300;9.182;2022-08-03T01:15:59;20.70;1.00
4183;DHT22;2105;52.300;9.182;2022-08-03T01:18:35;20.60;1.00
4183;DHT22;2105;52.300;9.182;2022-08-03T01:21:08;20.60;1.00
4183;DHT22;2105;52.300;9.182;2022-08-03T01:23:55;20.60;1.00
4183;DHT22;2105;52.300;9.182;2022-08-03T01:26:41;20.40;99.90
4183;DHT22;2105;52.300;9.182;2022-08-03T01:32:14;20.20;99.90
4183;DHT22;2105;52.300;9.182;2022-08-03T01:34:45;20.10;99.90
4183;DHT22;2105;52.300;9.182;2022-08-03T01:37:15;20.10;99.90
4183;DHT22;2105;52.300;9.182;2022-08-03T01:39:46;20.10;99.90
4183;DHT22;2105;52.300;9.182;2022-08-03T01:42:14;20.10;99.90
4183;DHT22;2105;52.300;9.182;2022-08-03T01:44:44;20.10;99.90
4183;DHT22;2105;52.300;9.182;2022-08-03T01:47:14;20.00;99.90
4183;DHT22;2105;52.300;9.182;2022-08-03T01:49:45;20.00;99.90
4183;DHT22;2105;52.300;9.182;2022-08-03T01:52:16;20.00;99.90
4183;DHT22;2105;52.300;9.182;2022-08-03T01:54:47;20.10;99.90
4183;DHT22;2105;52.300;9.182;2022-08-03T01:57:15;20.10;16.70
4183;DHT22;2105;52.300;9.182;2022-08-03T01:59:43;20.20;1.00
4183;DHT22;2105;52.300;9.182;2022-08-03T02:02:14;20.40;1.00
4183;DHT22;2105;52.300;9.182;2022-08-03T02:04:42;20.50;1.00
4183;DHT22;2105;52.300;9.182;2022-08-03T02:07:11;20.50;1.00
4183;DHT22;2105;52.300;9.182;2022-08-03T02:09:39;20.70;99.90
4183;DHT22;2105;52.300;9.182;2022-08-03T02:12:08;21.00;99.90
4183;DHT22;2105;52.300;9.182;2022-08-03T02:14:36;21.10;85.10
4183;DHT22;2105;52.300;9.182;2022-08-03T02:17:03;21.10;1.00
4183;DHT22;2105;52.300;9.182;2022-08-03T02:19:32;21.20;1.00
4183;DHT22;2105;52.300;9.182;2022-08-03T02:22:00;21.40;1.00
4183;DHT22;2105;52.300;9.182;2022-08-03T02:24:27;21.40;1.00
4183;DHT22;2105;52.300;9.182;2022-08-03T02:26:55;21.50;1.00
4183;DHT22;2105;52.300;9.182;2022-08-03T02:29:25;21.40;1.00
4183;DHT22;2105;52.300;9.182;2022-08-03T02:31:57;21.30;1.00
4183;DHT22;2105;52.300;9.182;2022-08-03T02:34:26;21.10;99.90
4183;DHT22;2105;52.300;9.182;2022-08-03T02:36:57;20.90;99.90
4183;DHT22;2105;52.300;9.182;2022-08-03T02:39:27;20.70;1.00
4183;DHT22;2105;52.300;9.182;2022-08-03T02:41:56;20.60;1.00
4183;DHT22;2105;52.300;9.182;2022-08-03T02:44:28;20.40;1.00
4183;DHT22;2105;52.300;9.182;2022-08-03T02:47:01;20.20;1.00
4183;DHT22;2105;52.300;9.182;2022-08-03T02:49:28;20.10;1.00
4183;DHT22;2105;52.300;9.182;2022-08-03T02:51:58;20.20;1.00
4183;DHT22;2105;52.300;9.182;2022-08-03T02:54:26;20.50;99.90
4183;DHT22;2105;52.300;9.182;2022-08-03T02:56:53;20.80;99.90
4183;DHT22;2105;52.300;9.182;2022-08-03T02:59:22;21.10;68.50
4183;DHT22;2105;52.300;9.182;2022-08-03T03:01:50;21.10;35.00
4183;DHT22;2105;52.300;9.182;2022-08-03T03:04:19;21.20;1.00
4183;DHT22;2105;52.300;9.182;2022-08-03T03:06:47;21.30;1.00
4183;DHT22;2105;52.300;9.182;2022-08-03T03:09:16;21.40;1.00
4183;DHT22;2105;52.300;9.182;2022-08-03T03:11:45;21.40;1.00
4183;DHT22;2105;52.300;9.182;2022-08-03T03:14:14;21.40;1.00
4183;DHT22;2105;52.300;9.182;2022-08-03T03:16:41;21.50;1.00
4183;DHT22;2105;52.300;9.182;2022-08-03T03:19:10;21.40;1.00
4183;DHT22;2105;52.300;9.182;2022-08-03T03:21:37;21.50;1.00
4183;DHT22;2105;52.300;9.182;2022-08-03T03:24:05;21.60;1.00
4183;DHT22;2105;52.300;9.182;2022-08-03T03:26:34;21.70;1.00
4183;DHT22;2105;52.300;9.182;2022-08-03T03:29:02;21.70;1.00
4183;DHT22;2105;52.300;9.182;2022-08-03T03:31:29;21.70;1.00
4183;DHT22;2105;52.300;9.182;2022-08-03T03:33:56;21.70;1.00
4183;DHT22;2105;52.300;9.182;2022-08-03T03:36:23;21.70;1.00
4183;DHT22;2105;52.300;9.182;2022-08-03T03:38:50;21.70;1.00
4183;DHT22;2105;52.300;9.182;2022-08-03T03:41:16;21.80;1.00
4183;DHT22;2105;52.300;9.182;2022-08-03T03:43:45;21.70;1.00
4183;DHT22;2105;52.300;9.182;2022-08-03T03:46:12;21.70;1.00
4183;DHT22;2105;52.300;9.182;2022-08-03T03:48:39;21.70;1.00
4183;DHT22;2105;52.300;9.182;2022-08-03T03:51:06;21.70;1.00
4183;DHT22;2105;52.300;9.182;2022-08-03T03:53:33;21.50;1.00
4183;DHT22;2105;52.300;9.182;2022-08-03T03:56:00;21.30;1.00
4183;DHT22;2105;52.300;9.182;2022-08-03T03:58:27;21.30;1.00
4183;DHT22;2105;52.300;9.182;2022-08-03T04:00:55;21.20;37.00
4183;DHT22;2105;52.300;9.182;2022-08-03T04:03:21;21.20;1.00
4183;DHT22;2105;52.300;9.182;2022-08-03T04:05:49;21.30;1.00
4183;DHT22;2105;52.300;9.182;2022-08-03T04:08:33;21.50;1.00
4183;DHT22;2105;52.300;9.182;2022-08-03T04:11:20;21.60;1.00
4183;DHT22;2105;52.300;9.182;2022-08-03T04:13:50;21.80;99.90
4183;DHT22;2105;52.300;9.182;2022-08-03T04:16:21;22.00;99.90
4183;DHT22;2105;52.300;9.182;2022-08-03T04:18:53;22.00;99.90
4183;DHT22;2105;52.300;9.182;2022-08-03T04:21:21;22.20;99.90
4183;DHT22;2105;52.300;9.182;2022-08-03T04:23:52;22.30;99.90
4183;DHT22;2105;52.300;9.182;2022-08-03T04:26:22;22.30;99.90
4183;DHT22;2105;52.300;9.182;2022-08-03T04:28:51;22.40;99.90
4183;DHT22;2105;52.300;9.182;2022-08-03T04:31:22;22.40;99.90
4183;DHT22;2105;52.300;9.182;2022-08-03T04:33:51;22.50;99.90
4183;DHT22;2105;52.300;9.182;2022-08-03T04:36:21;22.60;99.90
4183;DHT22;2105;52.300;9.182;2022-08-03T04:38:55;22.70;99.90
4183;DHT22;2105;52.300;9.182;2022-08-03T04:41:27;22.80;99.90
4183;DHT22;2105;52.300;9.182;2022-08-03T04:43:54;22.90;99.90
4183;DHT22;2105;52.300;9.182;2022-08-03T04:46:26;23.00;99.90
4183;DHT22;2105;52.300;9.182;2022-08-03T04:48:54;23.00;92.30
4183;DHT22;2105;52.300;9.182;2022-08-03T04:51:21;23.10;99.90
4183;DHT22;2105;52.300;9.182;2022-08-03T04:53:47;23.10;97.60
4183;DHT22;2105;52.300;9.182;2022-08-03T04:56:14;23.20;71.50
4183;DHT22;2105;52.300;9.182;2022-08-03T04:58:41;23.20;43.60
4183;DHT22;2105;52.300;9.182;2022-08-03T05:01:08;23.30;45.80
4183;DHT22;2105;52.300;9.182;2022-08-03T05:03:36;23.30;1.00
4183;DHT22;2105;52.300;9.182;2022-08-03T05:06:02;23.40;1.00
4183;DHT22;2105;52.300;9.182;2022-08-03T05:08:29;23.40;33.80
4183;DHT22;2105;52.300;9.182;2022-08-03T05:10:56;23.50;47.90
4183;DHT22;2105;52.300;9.182;2022-08-03T05:13:22;23.60;1.00
4183;DHT22;2105;52.300;9.182;2022-08-03T05:15:49;23.60;1.00
4183;DHT22;2105;52.300;9.182;2022-08-03T05:18:16;23.80;1.00
4183;DHT22;2105;52.300;9.182;2022-08-03T05:20:44;23.80;1.00
4183;DHT22;2105;52.300;9.182;2022-08-03T05:23:10;23.90;1.00
4183;DHT22;2105;52.300;9.182;2022-08-03T05:25:37;24.10;1.00
4183;DHT22;2105;52.300;9.182;2022-08-03T05:28:04;24.10;1.00
4183;DHT22;2105;52.300;9.182;2022-08-03T05:30:30;24.20;1.00
4183;DHT22;2105;52.300;9.182;2022-08-03T05:32:57;24.20;1.00
4183;DHT22;2105;52.300;9.182;2022-08-03T05:35:24;24.30;1.00
4183;DHT22;2105;52.300;9.182;2022-08-03T05:37:54;24.40;1.00
4183;DHT22;2105;52.300;9.182;2022-08-03T05:40:21;24.50;1.00
4183;DHT22;2105;52.300;9.182;2022-08-03T05:42:48;24.60;1.00
4183;DHT22;2105;52.300;9.182;2022-08-03T05:45:15;24.70;1.00
4183;DHT22;2105;52.300;9.182;2022-08-03T05:47:43;24.80;1.00
4183;DHT22;2105;52.300;9.182;2022-08-03T05:50:09;24.80;1.00
4183;DHT22;2105;52.300;9.182;2022-08-03T05:52:37;24.90;1.00
4183;DHT22;2105;52.300;9.182;2022-08-03T05:55:06;25.00;1.00
4183;DHT22;2105;52.300;9.182;2022-08-03T05:57:33;25.00;1.00
4183;DHT22;2105;52.300;9.182;2022-08-03T06:00:01;25.20;1.00
4183;DHT22;2105;52.300;9.182;2022-08-03T06:02:28;25.30;1.00
4183;DHT22;2105;52.300;9.182;2022-08-03T06:04:55;25.30;1.00
4183;DHT22;2105;52.300;9.182;2022-08-03T06:07:21;25.30;99.90
4183;DHT22;2105;52.300;9.182;2022-08-03T06:09:48;25.20;1.00
4183;DHT22;2105;52.300;9.182;2022-08-03T06:12:16;25.30;1.00
4183;DHT22;2105;52.300;9.182;2022-08-03T06:14:43;25.40;99.90
4183;DHT22;2105;52.300;9.182;2022-08-03T06:17:10;25.40;1.00
4183;DHT22;2105;52.300;9.182;2022-08-03T06:19:36;25.50;99.90
4183;DHT22;2105;52.300;9.182;2022-08-03T06:22:03;25.60;99.90
4183;DHT22;2105;52.300;9.182;2022-08-03T06:24:30;25.70;99.90
4183;DHT22;2105;52.300;9.182;2022-08-03T06:26:57;25.70;99.90
4183;DHT22;2105;52.300;9.182;2022-08-03T06:29:25;25.70;99.90
4183;DHT22;2105;52.300;9.182;2022-08-03T06:31:52;25.80;99.90
4183;DHT22;2105;52.300;9.182;2022-08-03T06:34:18;25.80;99.90
4183;DHT22;2105;52.300;9.182;2022-08-03T06:36:45;25.90;99.90
4183;DHT22;2105;52.300;9.182;2022-08-03T06:39:13;26.00;99.90
4183;DHT22;2105;52.300;9.182;2022-08-03T06:41:39;26.00;99.90
4183;DHT22;2105;52.300;9.182;2022-08-03T06:44:06;26.10;99.90
4183;DHT22;2105;52.300;9.182;2022-08-03T06:46:34;25.90;99.90
4183;DHT22;2105;52.300;9.182;2022-08-03T06:49:01;25.80;99.90
4183;DHT22;2105;52.300;9.182;2022-08-03T06:51:28;25.80;99.90
4183;DHT22;2105;52.300;9.182;2022-08-03T06:53:55;26.00;99.90
4183;DHT22;2105;52.300;9.182;2022-08-03T06:56:22;26.20;99.90
4183;DHT22;2105;52.300;9.182;2022-08-03T06:58:48;26.50;99.90
4183;DHT22;2105;52.300;9.182;2022-08-03T07:01:15;26.80;99.90
4183;DHT22;2105;52.300;9.182;2022-08-03T07:03:43;27.30;99.90
4183;DHT22;2105;52.300;9.182;2022-08-03T07:06:10;27.60;99.90
4183;DHT22;2105;52.300;9.182;2022-08-03T07:08:37;27.50;99.90
4183;DHT22;2105;52.300;9.182;2022-08-03T07:11:03;28.00;99.90
4183;DHT22;2105;52.300;9.182;2022-08-03T07:13:30;28.90;99.90
4183;DHT22;2105;52.300;9.182;2022-08-03T07:15:57;30.00;99.90
4183;DHT22;2105;52.300;9.182;2022-08-03T07:18:24;30.50;99.90
4183;DHT22;2105;52.300;9.182;2022-08-03T07:20:52;30.70;96.60
4183;DHT22;2105;52.300;9.182;2022-08-03T07:23:19;30.50;59.90
4183;DHT22;2105;52.300;9.182;2022-08-03T07:25:45;29.60;93.30
4183;DHT22;2105;52.300;9.182;2022-08-03T07:28:12;29.50;99.90
4183;DHT22;2105;52.300;9.182;2022-08-03T07:30:39;29.50;97.70
4183;DHT22;2105;52.300;9.182;2022-08-03T07:33:05;29.80;93.90
4183;DHT22;2105;52.300;9.182;2022-08-03T07:35:32;29.90;95.60
4183;DHT22;2105;52.300;9.182;2022-08-03T07:38:00;30.90;41.70
4183;DHT22;2105;52.300;9.182;2022-08-03T07:40:27;30.60;16.10
4183;DHT22;2105;52.300;9.182;2022-08-03T07:42:54;29.50;51.10
4183;DHT22;2105;52.300;9.182;2022-08-03T07:45:20;29.60;75.00
4183;DHT22;2105;52.300;9.182;2022-08-03T07:47:48;29.70;46.60
4183;DHT22;2105;52.300;9.182;2022-08-03T07:50:15;29.30;82.90
4183;DHT22;2105;52.300;9.182;2022-08-03T07:52:42;29.60;95.70
4183;DHT22;2105;52.300;9.182;2022-08-03T07:55:18;30.00;91.30
4183;DHT22;2105;52.300;9.182;2022-08-03T07:57:45;30.00;55.30
4183;DHT22;2105;52.300;9.182;2022-08-03T08:00:14;30.30;66.60
4183;DHT22;2105;52.300;9.182;2022-08-03T08:02:42;30.40;45.80
4183;DHT22;2105;52.300;9.182;2022-08-03T08:05:09;29.70;51.20
4183;DHT22;2105;52.300;9.182;2022-08-03T08:07:37;29.10;98.00
4183;DHT22;2105;52.300;9.182;2022-08-03T08:10:05;28.40;99.90
4183;DHT22;2105;52.300;9.182;2022-08-03T08:12:33;28.30;99.90
4183;DHT22;2105;52.300;9.182;2022-08-03T08:15:00;28.00;99.90
4183;DHT22;2105;52.300;9.182;2022-08-03T08:17:26;27.70;99.90
4183;DHT22;2105;52.300;9.182;2022-08-03T08:19:53;27.90;99.90
4183;DHT22;2105;52.300;9.182;2022-08-03T08:22:20;28.00;99.90
4183;DHT22;2105;52.300;9.182;2022-08-03T08:24:46;28.20;99.90
4183;DHT22;2105;52.300;9.182;2022-08-03T08:27:13;28.20;99.90
4183;DHT22;2105;52.300;9.182;2022-08-03T08:29:42;28.40;99.90
4183;DHT22;2105;52.300;9.182;2022-08-03T08:32:08;28.50;99.90
4183;DHT22;2105;52.300;9.182;2022-08-03T08:34:35;28.70;99.90
4183;DHT22;2105;52.300;9.182;2022-08-03T08:37:02;28.60;99.90
4183;DHT22;2105;52.300;9.182;2022-08-03T08:39:29;28.50;99.90
4183;DHT22;2105;52.300;9.182;2022-08-03T08:41:55;28.60;99.90
4183;DHT22;2105;52.300;9.182;2022-08-03T08:44:22;28.70;99.90
4183;DHT22;2105;52.300;9.182;2022-08-03T08:46:52;28.80;99.90
4183;DHT22;2105;52.300;9.182;2022-08-03T08:49:22;28.70;99.90
4183;DHT22;2105;52.300;9.182;2022-08-03T08:51:50;28.80;99.90
4183;DHT22;2105;52.300;9.182;2022-08-03T08:54:20;28.80;99.90
4183;DHT22;2105;52.300;9.182;2022-08-03T08:56:48;28.80;99.90
4183;DHT22;2105;52.300;9.182;2022-08-03T08:59:16;28.80;99.90
4183;DHT22;2105;52.300;9.182;2022-08-03T09:01:43;28.80;99.90
4183;DHT22;2105;52.300;9.182;2022-08-03T09:04:11;28.90;99.90
4183;DHT22;2105;52.300;9.182;2022-08-03T09:06:38;28.80;99.90
4183;DHT22;2105;52.300;9.182;2022-08-03T09:09:05;28.90;99.90
4183;DHT22;2105;52.300;9.182;2022-08-03T09:11:32;29.00;99.90
4183;DHT22;2105;52.300;9.182;2022-08-03T09:14:00;29.10;99.90
4183;DHT22;2105;52.300;9.182;2022-08-03T09:16:27;29.20;99.90
4183;DHT22;2105;52.300;9.182;2022-08-03T09:18:53;29.30;99.90
4183;DHT22;2105;52.300;9.182;2022-08-03T09:21:23;29.30;99.90
4183;DHT22;2105;52.300;9.182;2022-08-03T09:23:51;29.40;99.10
4183;DHT22;2105;52.300;9.182;2022-08-03T09:26:20;29.20;99.90
4183;DHT22;2105;52.300;9.182;2022-08-03T09:28:54;29.30;99.90
4183;DHT22;2105;52.300;9.182;2022-08-03T09:31:32;29.30;96.40
4183;DHT22;2105;52.300;9.182;2022-08-03T09:34:01;29.10;82.70
4183;DHT22;2105;52.300;9.182;2022-08-03T09:36:40;29.10;99.90
4183;DHT22;2105;52.300;9.182;2022-08-03T09:39:09;29.40;97.70
4183;DHT22;2105;52.300;9.182;2022-08-03T09:41:38;29.80;99.90
4183;DHT22;2105;52.300;9.182;2022-08-03T09:44:05;30.30;86.70
4183;DHT22;2105;52.300;9.182;2022-08-03T09:46:46;30.40;54.00
4183;DHT22;2105;52.300;9.182;2022-08-03T09:49:13;30.20;49.30
4183;DHT22;2105;52.300;9.182;2022-08-03T09:51:41;29.90;44.10
4183;DHT22;2105;52.300;9.182;2022-08-03T09:54:08;29.90;59.30
4183;DHT22;2105;52.300;9.182;2022-08-03T09:56:43;30.00;47.00
4183;DHT22;2105;52.300;9.182;2022-08-03T09:59:11;30.10;39.80
4183;DHT22;2105;52.300;9.182;2022-08-03T10:01:38;29.80;36.40
4183;DHT22;2105;52.300;9.182;2022-08-03T10:04:11;29.60;41.30
4183;DHT22;2105;52.300;9.182;2022-08-03T10:06:40;29.80;46.30
4183;DHT22;2105;52.300;9.182;2022-08-03T10:09:10;30.00;25.60
4183;DHT22;2105;52.300;9.182;2022-08-03T10:11:37;30.30;1.70
4183;DHT22;2105;52.300;9.182;2022-08-03T10:14:07;30.40;33.30
4183;DHT22;2105;52.300;9.182;2022-08-03T10:16:35;30.50;8.00
4183;DHT22;2105;52.300;9.182;2022-08-03T10:19:03;30.70;5.40
4183;DHT22;2105;52.300;9.182;2022-08-03T10:21:32;30.90;6.70
4183;DHT22;2105;52.300;9.182;2022-08-03T10:24:03;30.60;1.00
4183;DHT22;2105;52.300;9.182;2022-08-03T10:26:32;30.60;2.40
4183;DHT22;2105;52.300;9.182;2022-08-03T10:28:59;30.40;1.00
4183;DHT22;2105;52.300;9.182;2022-08-03T10:31:33;30.30;1.00
4183;DHT22;2105;52.300;9.182;2022-08-03T10:34:01;30.50;1.00
4183;DHT22;2105;52.300;9.182;2022-08-03T10:36:32;30.90;1.00
4183;DHT22;2105;52.300;9.182;2022-08-03T10:39:02;31.20;1.00
4183;DHT22;2105;52.300;9.182;2022-08-03T10:41:32;31.50;1.00
4183;DHT22;2105;52.300;9.182;2022-08-03T10:44:04;31.60;1.00
4183;DHT22;2105;52.300;9.182;2022-08-03T10:46:32;31.70;1.00
4183;DHT22;2105;52.300;9.182;2022-08-03T10:49:00;31.70;1.00
4183;DHT22;2105;52.300;9.182;2022-08-03T10:51:28;31.90;1.00
4183;DHT22;2105;52.300;9.182;2022-08-03T10:53:57;32.10;1.00
4183;DHT22;2105;52.300;9.182;2022-08-03T10:56:41;32.00;1.00
4183;DHT22;2105;52.300;9.182;2022-08-03T10:59:57;32.00;1.00
4183;DHT22;2105;52.300;9.182;2022-08-03T11:03:05;31.90;1.00
4183;DHT22;2105;52.300;9.182;2022-08-03T11:05:38;32.00;1.00
4183;DHT22;2105;52.300;9.182;2022-08-03T11:08:22;32.20;1.00
4183;DHT22;2105;52.300;9.182;2022-08-03T11:10:50;32.10;1.00
4183;DHT22;2105;52.300;9.182;2022-08-03T11:13:20;32.30;1.00
4183;DHT22;2105;52.300;9.182;2022-08-03T11:15:48;32.40;1.00
4183;DHT22;2105;52.300;9.182;2022-08-03T11:18:15;32.70;1.00
4183;DHT22;2105;52.300;9.182;2022-08-03T11:20:44;32.30;1.00
4183;DHT22;2105;52.300;9.182;2022-08-03T11:23:12;32.10;1.00
4183;DHT22;2105;52.300;9.182;2022-08-03T11:26:09;32.20;1.00
4183;DHT22;2105;52.300;9.182;2022-08-03T11:28:38;32.40;1.00
4183;DHT22;2105;52.300;9.182;2022-08-03T11:31:45;32.50;1.00
4183;DHT22;2105;52.300;9.182;2022-08-03T11:34:14;32.50;1.00
4183;DHT22;2105;52.300;9.182;2022-08-03T11:39:53;32.60;1.00
4183;DHT22;2105;52.300;9.182;2022-08-03T11:42:40;32.60;1.00
4183;DHT22;2105;52.300;9.182;2022-08-03T11:45:11;32.70;1.00
4183;DHT22;2105;52.300;9.182;2022-08-03T11:47:38;32.70;1.00
4183;DHT22;2105;52.300;9.182;2022-08-03T11:50:06;32.80;1.00
4183;DHT22;2105;52.300;9.182;2022-08-03T11:52:38;32.90;1.00
4183;DHT22;2105;52.300;9.182;2022-08-03T11:55:10;32.90;1.00
4183;DHT22;2105;52.300;9.182;2022-08-03T11:57:37;33.10;1.00
4183;DHT22;2105;52.300;9.182;2022-08-03T12:00:19;33.40;1.00
4183;DHT22;2105;52.300;9.182;2022-08-03T12:02:56;33.30;1.00
4183;DHT22;2105;52.300;9.182;2022-08-03T12:05:41;33.40;1.00
4183;DHT22;2105;52.300;9.182;2022-08-03T12:08:08;33.30;1.00
4183;DHT22;2105;52.300;9.182;2022-08-03T12:10:36;33.10;1.00
4183;DHT22;2105;52.300;9.182;2022-08-03T12:13:05;33.00;1.00
4183;DHT22;2105;52.300;9.182;2022-08-03T12:15:35;33.20;1.00
4183;DHT22;2105;52.300;9.182;2022-08-03T12:18:12;33.30;1.00
4183;DHT22;2105;52.300;9.182;2022-08-03T12:20:39;33.50;1.00
4183;DHT22;2105;52.300;9.182;2022-08-03T12:23:07;33.60;1.00
4183;DHT22;2105;52.300;9.182;2022-08-03T12:25:34;33.70;1.00
4183;DHT22;2105;52.300;9.182;2022-08-03T12:28:13;33.80;1.00
4183;DHT22;2105;52.300;9.182;2022-08-03T12:30:44;33.90;1.00
4183;DHT22;2105;52.300;9.182;2022-08-03T12:33:22;34.00;1.00
4183;DHT22;2105;52.300;9.182;2022-08-03T12:36:01;33.90;1.00
4183;DHT22;2105;52.300;9.182;2022-08-03T12:38:29;33.70;1.00
4183;DHT22;2105;52.300;9.182;2022-08-03T12:40:58;33.80;1.00
4183;DHT22;2105;52.300;9.182;2022-08-03T12:43:26;33.90;1.00
4183;DHT22;2105;52.300;9.182;2022-08-03T12:46:08;34.10;1.00
4183;DHT22;2105;52.300;9.182;2022-08-03T12:48:35;33.70;1.00
4183;DHT22;2105;52.300;9.182;2022-08-03T12:51:08;33.90;1.00
4183;DHT22;2105;52.300;9.182;2022-08-03T12:53:35;34.00;1.00
4183;DHT22;2105;52.300;9.182;2022-08-03T12:56:02;34.30;1.00
4183;DHT22;2105;52.300;9.182;2022-08-03T12:58:30;34.50;1.00
4183;DHT22;2105;52.300;9.182;2022-08-03T13:00:58;34.50;1.00
4183;DHT22;2105;52.300;9.182;2022-08-03T13:03:26;34.70;1.00
4183;DHT22;2105;52.300;9.182;2022-08-03T13:05:53;34.90;1.00
4183;DHT22;2105;52.300;9.182;2022-08-03T13:08:23;34.70;1.00
4183;DHT22;2105;52.300;9.182;2022-08-03T13:10:51;33.90;1.00
4183;DHT22;2105;52.300;9.182;2022-08-03T13:13:17;33.90;1.00
4183;DHT22;2105;52.300;9.182;2022-08-03T13:15:45;33.90;1.00
4183;DHT22;2105;52.300;9.182;2022-08-03T13:18:12;34.00;1.00
4183;DHT22;2105;52.300;9.182;2022-08-03T13:20:41;33.80;1.00
4183;DHT22;2105;52.300;9.182;2022-08-03T13:23:08;33.90;1.00
4183;DHT22;2105;52.300;9.182;2022-08-03T13:25:34;34.30;1.00
4183;DHT22;2105;52.300;9.182;2022-08-03T13:28:01;34.40;1.00
4183;DHT22;2105;52.300;9.182;2022-08-03T13:30:29;33.80;1.00
4183;DHT22;2105;52.300;9.182;2022-08-03T13:32:55;33.60;1.00
4183;DHT22;2105;52.300;9.182;2022-08-03T13:35:23;33.50;1.00
4183;DHT22;2105;52.300;9.182;2022-08-03T13:37:51;33.60;1.00
4183;DHT22;2105;52.300;9.182;2022-08-03T13:40:17;33.80;1.00
4183;DHT22;2105;52.300;9.182;2022-08-03T13:42:44;34.10;1.00
4183;DHT22;2105;52.300;9.182;2022-08-03T13:45:11;34.30;1.00
4183;DHT22;2105;52.300;9.182;2022-08-03T13:47:37;34.50;1.00
4183;DHT22;2105;52.300;9.182;2022-08-03T13:50:05;34.40;1.00
4183;DHT22;2105;52.300;9.182;2022-08-03T13:52:33;33.50;1.00
4183;DHT22;2105;52.300;9.182;2022-08-03T13:55:04;33.20;1.00
4183;DHT22;2105;52.300;9.182;2022-08-03T13:57:31;32.90;1.00
4183;DHT22;2105;52.300;9.182;2022-08-03T13:59:58;33.20;1.00
4183;DHT22;2105;52.300;9.182;2022-08-03T14:02:25;33.70;1.00
4183;DHT22;2105;52.300;9.182;2022-08-03T14:04:52;34.00;1.00
4183;DHT22;2105;52.300;9.182;2022-08-03T14:07:19;34.30;1.00
4183;DHT22;2105;52.300;9.182;2022-08-03T14:09:45;34.70;1.00
4183;DHT22;2105;52.300;9.182;2022-08-03T14:12:13;34.30;1.00
4183;DHT22;2105;52.300;9.182;2022-08-03T14:14:40;33.70;1.00
4183;DHT22;2105;52.300;9.182;2022-08-03T14:17:07;34.00;1.00
4183;DHT22;2105;52.300;9.182;2022-08-03T14:19:33;34.00;1.00
4183;DHT22;2105;52.300;9.182;2022-08-03T14:22:00;34.30;1.00
4183;DHT22;2105;52.300;9.182;2022-08-03T14:24:27;34.60;1.00
4183;DHT22;2105;52.300;9.182;2022-08-03T14:26:53;34.80;1.00
4183;DHT22;2105;52.300;9.182;2022-08-03T14:29:21;34.60;1.00
4183;DHT22;2105;52.300;9.182;2022-08-03T14:31:48;34.20;1.00
4183;DHT22;2105;52.300;9.182;2022-08-03T14:34:15;34.40;1.00
4183;DHT22;2105;52.300;9.182;2022-08-03T14:36:41;34.60;1.00
4183;DHT22;2105;52.300;9.182;2022-08-03T14:39:08;34.70;1.00
4183;DHT22;2105;52.300;9.182;2022-08-03T14:41:35;34.70;1.00
4183;DHT22;2105;52.300;9.182;2022-08-03T14:44:02;34.80;1.00
4183;DHT22;2105;52.300;9.182;2022-08-03T14:46:30;34.40;1.00
4183;DHT22;2105;52.300;9.182;2022-08-03T14:49:06;33.90;1.00
4183;DHT22;2105;52.300;9.182;2022-08-03T14:51:56;34.00;1.00
4183;DHT22;2105;52.300;9.182;2022-08-03T14:54:23;34.30;1.00
4183;DHT22;2105;52.300;9.182;2022-08-03T14:56:50;34.60;1.00
4183;DHT22;2105;52.300;9.182;2022-08-03T14:59:17;34.70;1.00
4183;DHT22;2105;52.300;9.182;2022-08-03T15:01:45;34.80;1.00
4183;DHT22;2105;52.300;9.182;2022-08-03T15:04:11;34.70;1.00
4183;DHT22;2105;52.300;9.182;2022-08-03T15:06:38;34.70;1.00
4183;DHT22;2105;52.300;9.182;2022-08-03T15:09:04;34.70;1.00
4183;DHT22;2105;52.300;9.182;2022-08-03T15:11:31;34.60;1.00
4183;DHT22;2105;52.300;9.182;2022-08-03T15:13:58;34.30;1.00
4183;DHT22;2105;52.300;9.182;2022-08-03T15:16:25;34.00;1.00
4183;DHT22;2105;52.300;9.182;2022-08-03T15:18:53;34.00;1.00
4183;DHT22;2105;52.300;9.182;2022-08-03T15:21:19;34.20;1.00
4183;DHT22;2105;52.300;9.182;2022-08-03T15:23:46;34.50;1.00
4183;DHT22;2105;52.300;9.182;2022-08-03T15:26:13;34.60;1.00
4183;DHT22;2105;52.300;9.182;2022-08-03T15:28:39;34.60;1.00
4183;DHT22;2105;52.300;9.182;2022-08-03T15:31:06;34.50;1.00
4183;DHT22;2105;52.300;9.182;2022-08-03T15:33:33;34.40;1.00
4183;DHT22;2105;52.300;9.182;2022-08-03T15:36:01;34.10;1.00
4183;DHT22;2105;52.300;9.182;2022-08-03T15:38:28;34.20;1.00
4183;DHT22;2105;52.300;9.182;2022-08-03T15:40:55;34.10;1.00
4183;DHT22;2105;52.300;9.182;2022-08-03T15:43:23;34.10;1.00
4183;DHT22;2105;52.300;9.182;2022-08-03T15:45:50;34.20;1.00
4183;DHT22;2105;52.300;9.182;2022-08-03T15:48:17;33.50;1.00
4183;DHT22;2105;52.300;9.182;2022-08-03T15:50:44;33.10;1.00
4183;DHT22;2105;52.300;9.182;2022-08-03T15:53:12;33.10;1.00
4183;DHT22;2105;52.300;9.182;2022-08-03T15:55:39;33.20;1.00
4183;DHT22;2105;52.300;9.182;2022-08-03T15:58:06;33.20;1.00
4183;DHT22;2105;52.300;9.182;2022-08-03T16:00:32;33.40;1.00
4183;DHT22;2105;52.300;9.182;2022-08-03T16:02:59;33.20;1.00
4183;DHT22;2105;52.300;9.182;2022-08-03T16:05:26;32.60;1.00
4183;DHT22;2105;52.300;9.182;2022-08-03T16:07:52;32.50;1.00
4183;DHT22;2105;52.300;9.182;2022-08-03T16:10:21;32.90;1.00
4183;DHT22;2105;52.300;9.182;2022-08-03T16:12:47;33.30;1.00
4183;DHT22;2105;52.300;9.182;2022-08-03T16:15:15;33.60;1.00
4183;DHT22;2105;52.300;9.182;2022-08-03T16:17:42;33.90;1.00
4183;DHT22;2105;52.300;9.182;2022-08-03T16:20:10;34.00;1.00
4183;DHT22;2105;52.300;9.182;2022-08-03T16:22:42;34.10;1.00
4183;DHT22;2105;52.300;9.182;2022-08-03T16:25:10;34.20;1.00
4183;DHT22;2105;52.300;9.182;2022-08-03T16:27:38;34.10;1.00
4183;DHT22;2105;52.300;9.182;2022-08-03T16:30:06;34.20;1.00